Time;durP1;ratioP1;P1;durP2;ratioP2;P2;SDS_P1;SDS_P2;PMS_P1;PMS_P2;Temp;Humidity;BMP_temperature;BMP_pressure;BME280_temperature;BME280_humidity;BME280_pressure;Samples;Min_cycle;Max_cycle;Signal;HPM_P1;HPM_P2
2022/08/07 00:03:23;;;;;;;1.05;0.63;;;;;;;16.99;76.24;100935.66;10587475;28;20051;-79
2022/08/07 00:08:25;;;;;;;4.55;0.60;;;;;;;16.89;75.46;100933.19;10605198;28;20680;-79
2022/08/07 00:13:27;;;;;;;2.97;0.50;;;;;;;16.77;73.70;100955.09;10617148;28;20040;-78
2022/08/07 00:18:29;;;;;;;0.30;0.30;;;;;;;16.70;71.82;100954.72;10621032;28;20058;-80
2022/08/07 00:23:32;;;;;;;0.30;0.22;;;;;;;16.33;70.66;100964.97;10581188;28;20040;-77
2022/08/07 00:28:35;;;;;;;0.13;0.13;;;;;;;16.16;69.90;100965.63;10586331;28;20059;-77
2022/08/07 00:33:38;;;;;;;2.40;0.65;;;;;;;15.86;69.29;100983.72;10570486;28;20032;-77
2022/08/07 00:38:40;;;;;;;0.00;0.00;;;;;;;15.58;68.12;100990.31;10546247;28;20031;-77
2022/08/07 00:43:42;;;;;;;0.17;0.17;;;;;;;15.44;67.91;101008.84;10616429;28;20058;-77
2022/08/07 00:48:45;;;;;;;0.43;0.30;;;;;;;15.39;68.10;101018.06;10584027;28;20035;-77
2022/08/07 00:53:47;;;;;;;0.22;0.20;;;;;;;15.18;67.13;101017.59;10591728;28;20409;-77
2022/08/07 00:58:49;;;;;;;0.32;0.30;;;;;;;15.10;67.60;101040.41;10622443;28;20056;-77
2022/08/07 01:03:51;;;;;;;0.40;0.30;;;;;;;15.00;67.80;101038.63;10564746;28;20047;-77
2022/08/07 01:08:54;;;;;;;0.10;0.10;;;;;;;14.92;67.65;101049.53;10597143;28;20055;-77
2022/08/07 01:13:56;;;;;;;3.85;0.20;;;;;;;14.73;67.97;101058.66;10579555;28;20048;-77
2022/08/07 01:18:59;;;;;;;0.55;0.10;;;;;;;14.64;68.21;101052.16;10549671;28;20035;-77
2022/08/07 01:24:01;;;;;;;2.03;0.10;;;;;;;14.64;68.33;101056.88;10577243;28;20044;-78
2022/08/07 01:29:04;;;;;;;0.85;0.20;;;;;;;14.52;68.95;101062.81;10564490;28;20047;-77
2022/08/07 01:34:07;;;;;;;0.17;0.10;;;;;;;14.49;68.73;101066.19;10567459;28;20059;-78
2022/08/07 01:39:15;;;;;;;0.20;0.20;;;;;;;14.44;69.44;101075.38;10563247;28;20052;-77
2022/08/07 01:44:24;;;;;;;0.22;0.10;;;;;;;14.45;69.53;101090.00;10575009;28;20551;-77
2022/08/07 01:49:26;;;;;;;0.20;0.20;;;;;;;14.38;69.91;101081.19;10589553;28;20424;-77
2022/08/07 01:54:32;;;;;;;0.10;0.10;;;;;;;14.44;69.72;101085.59;10574315;28;20035;-78
2022/08/07 01:59:43;;;;;;;0.10;0.10;;;;;;;14.51;69.75;101088.78;10568450;28;20505;-77
2022/08/07 02:04:56;;;;;;;0.57;0.25;;;;;;;14.51;69.56;101099.03;10552859;28;20039;-77
2022/08/07 02:10:00;;;;;;;0.45;0.20;;;;;;;14.54;69.32;101107.53;10579695;28;20040;-77
2022/08/07 02:15:04;;;;;;;0.90;0.20;;;;;;;14.58;69.40;101111.38;10525254;28;20056;-77
2022/08/07 02:20:10;;;;;;;1.42;0.25;;;;;;;14.43;69.04;101106.00;10546626;28;20043;-77
2022/08/07 02:25:14;;;;;;;0.30;0.15;;;;;;;14.60;69.43;101108.31;10570558;28;20500;-77
2022/08/07 02:30:18;;;;;;;1.08;0.15;;;;;;;14.62;69.75;101123.47;10529444;28;20041;-77
2022/08/07 02:35:21;;;;;;;0.10;0.10;;;;;;;14.60;69.91;101122.94;10550095;28;20454;-78
2022/08/07 02:40:27;;;;;;;1.10;0.13;;;;;;;14.50;69.84;101125.81;10522487;28;20052;-78
2022/08/07 02:45:32;;;;;;;1.25;0.30;;;;;;;14.39;69.96;101127.84;10534984;28;20040;-78
2022/08/07 02:50:38;;;;;;;0.47;0.17;;;;;;;14.53;70.17;101132.69;10544175;28;20058;-78
2022/08/07 02:55:46;;;;;;;1.17;0.10;;;;;;;14.54;70.27;101140.66;10563855;28;20025;-77
2022/08/07 03:00:50;;;;;;;0.13;0.03;;;;;;;14.71;69.85;101142.94;10540688;28;20052;-77
2022/08/07 03:05:55;;;;;;;0.35;0.25;;;;;;;14.79;69.50;101131.25;10550476;28;20066;-77
2022/08/07 03:10:58;;;;;;;0.82;0.20;;;;;;;14.94;69.38;101130.22;10530291;28;20525;-77
2022/08/07 03:16:06;;;;;;;0.13;0.13;;;;;;;14.95;69.00;101134.63;10574643;28;20073;-77
2022/08/07 03:21:09;;;;;;;0.63;0.30;;;;;;;14.88;68.31;101145.19;10547917;28;20039;-78
2022/08/07 03:26:15;;;;;;;0.90;0.30;;;;;;;15.13;68.66;101147.63;10591321;28;20051;-77
2022/08/07 03:31:18;;;;;;;0.65;0.30;;;;;;;15.35;67.88;101150.56;10562762;28;20047;-77
2022/08/07 03:36:25;;;;;;;0.88;0.30;;;;;;;15.63;66.93;101156.25;10592081;28;20051;-77
2022/08/07 03:41:29;;;;;;;0.30;0.30;;;;;;;15.77;65.92;101153.50;10579726;28;20031;-77
2022/08/07 03:46:32;;;;;;;0.38;0.20;;;;;;;15.92;64.91;101147.72;10564122;28;20417;-77
2022/08/07 03:51:36;;;;;;;0.20;0.20;;;;;;;16.17;64.63;101149.19;10572520;28;20039;-77
2022/08/07 03:56:39;;;;;;;0.20;0.20;;;;;;;16.61;62.83;101156.06;10560825;28;20039;-77
2022/08/07 04:01:44;;;;;;;0.20;0.20;;;;;;;16.90;61.70;101161.31;10571903;28;20524;-77
2022/08/07 04:06:46;;;;;;;0.38;0.30;;;;;;;17.29;60.13;101163.44;10576991;28;20039;-77
2022/08/07 04:11:53;;;;;;;0.20;0.20;;;;;;;17.50;59.85;101170.16;10611565;28;20070;-78
2022/08/07 04:16:56;;;;;;;0.30;0.30;;;;;;;17.90;58.75;101173.91;10553836;28;20036;-78
2022/08/07 04:21:58;;;;;;;0.30;0.30;;;;;;;18.40;57.69;101176.44;10561540;28;20049;-77
2022/08/07 04:27:03;;;;;;;0.38;0.38;;;;;;;18.87;55.88;101183.16;10576967;28;20035;-77
2022/08/07 04:32:07;;;;;;;0.45;0.30;;;;;;;19.30;55.19;101176.84;10557983;28;20036;-77
2022/08/07 04:37:10;;;;;;;0.20;0.20;;;;;;;19.90;53.42;101180.72;10567545;28;20050;-77
2022/08/07 04:42:13;;;;;;;1.60;0.20;;;;;;;20.21;52.73;101184.09;10572531;28;20414;-77
2022/08/07 04:47:34;;;;;;;0.25;0.22;;;;;;;20.79;51.10;101185.34;10575348;28;20410;-77
2022/08/07 04:52:52;;;;;;;0.52;0.20;;;;;;;20.76;50.49;101194.38;10564398;28;20048;-78
2022/08/07 04:58:26;;;;;;;0.55;0.20;;;;;;;21.20;49.67;101194.94;10600473;28;20436;-77
2022/08/07 05:03:41;;;;;;;0.25;0.20;;;;;;;21.55;49.13;101198.31;10603423;28;20036;-77
2022/08/07 05:08:56;;;;;;;0.22;0.22;;;;;;;21.97;47.64;101199.84;10581939;28;20048;-75
2022/08/07 05:14:01;;;;;;;0.17;0.15;;;;;;;21.92;47.14;101202.88;10588626;28;20043;-76
2022/08/07 05:19:11;;;;;;;0.20;0.20;;;;;;;22.60;46.21;101198.84;10561060;28;20048;-77
2022/08/07 05:24:16;;;;;;;0.10;0.10;;;;;;;22.94;45.76;101197.59;10588066;28;20051;-76
2022/08/07 05:29:19;;;;;;;1.75;0.30;;;;;;;23.21;45.80;101204.41;10581194;28;20078;-74
2022/08/07 05:34:22;;;;;;;0.43;0.30;;;;;;;23.35;45.02;101214.06;10557523;28;20382;-77
2022/08/07 05:39:25;;;;;;;1.23;0.50;;;;;;;23.31;45.54;101201.13;10556445;28;20036;-77
2022/08/07 05:44:35;;;;;;;;;;;;;;;22.72;44.80;101207.22;10552972;28;20044;-75
2022/08/07 05:49:38;;;;;;;0.93;0.40;;;;;;;22.24;47.62;101206.84;10572772;28;19924;-76
2022/08/07 05:54:40;;;;;;;0.68;0.30;;;;;;;22.69;46.84;101202.34;10565064;28;20039;-77
2022/08/07 05:59:45;;;;;;;0.57;0.30;;;;;;;23.49;45.40;101205.28;10552929;28;20036;-76
2022/08/07 06:04:52;;;;;;;0.20;0.20;;;;;;;23.77;44.79;101208.94;10587566;28;20409;-76
2022/08/07 06:09:55;;;;;;;0.68;0.20;;;;;;;24.61;42.48;101208.00;10539601;27;20048;-76
2022/08/07 06:14:58;;;;;;;0.30;0.20;;;;;;;25.09;40.75;101205.97;10564714;28;20602;-76
2022/08/07 06:20:01;;;;;;;0.20;0.20;;;;;;;24.71;41.36;101201.84;10566342;28;20081;-76
2022/08/07 06:25:05;;;;;;;0.52;0.30;;;;;;;24.19;42.16;101207.69;10564395;28;20055;-76
2022/08/07 06:30:08;;;;;;;0.68;0.50;;;;;;;23.35;43.07;101210.47;10575111;28;20044;-76
2022/08/07 06:35:10;;;;;;;0.52;0.50;;;;;;;22.53;44.14;101217.00;10574083;28;20048;-76
2022/08/07 06:40:13;;;;;;;2.38;0.40;;;;;;;21.88;47.20;101221.50;10595994;28;20039;-76
2022/08/07 06:45:17;;;;;;;0.40;0.20;;;;;;;21.96;48.13;101225.34;10547006;28;20054;-76
2022/08/07 06:50:21;;;;;;;0.40;0.40;;;;;;;23.00;46.56;101221.38;10541477;28;20040;-76
2022/08/07 06:55:30;;;;;;;0.40;0.40;;;;;;;23.83;45.84;101222.72;10555542;28;20122;-76
2022/08/07 07:00:37;;;;;;;0.55;0.30;;;;;;;23.44;45.01;101220.38;10595517;28;20055;-76
2022/08/07 07:05:40;;;;;;;2.13;0.30;;;;;;;22.65;46.07;101223.78;10585331;28;20712;-76
2022/08/07 07:10:42;;;;;;;1.95;0.50;;;;;;;22.56;46.02;101223.88;10555750;28;20059;-76
2022/08/07 07:15:47;;;;;;;2.70;0.30;;;;;;;22.34;45.46;101225.13;10589217;28;20419;-76
2022/08/07 07:20:58;;;;;;;0.40;0.38;;;;;;;23.45;44.33;101230.41;10592153;28;20039;-76
2022/08/07 07:26:07;;;;;;;2.38;0.82;;;;;;;23.88;43.79;101225.25;10613742;28;20035;-77
2022/08/07 07:31:31;;;;;;;0.28;0.28;;;;;;;23.35;43.14;101233.69;10612982;28;20058;-76
2022/08/07 07:36:37;;;;;;;0.10;0.10;;;;;;;23.10;43.77;101229.28;10589137;28;20039;-76
2022/08/07 07:41:40;;;;;;;0.45;0.38;;;;;;;22.62;45.72;101230.09;10591659;28;20043;-76
2022/08/07 07:46:43;;;;;;;0.80;0.30;;;;;;;22.03;47.72;101247.13;10565233;28;20036;-77
2022/08/07 07:51:47;;;;;;;0.30;0.30;;;;;;;21.55;49.07;101246.59;10586044;28;20044;-76
2022/08/07 07:56:51;;;;;;;1.38;0.30;;;;;;;21.17;49.42;101255.03;10572597;28;20040;-77
2022/08/07 08:01:53;;;;;;;0.20;0.20;;;;;;;20.94;50.02;101257.28;10555541;28;20044;-77
2022/08/07 08:06:56;;;;;;;0.38;0.30;;;;;;;20.71;51.09;101269.88;10592244;28;20051;-77
2022/08/07 08:11:58;;;;;;;0.52;0.40;;;;;;;21.73;49.36;101277.19;10593119;28;20198;-77
2022/08/07 08:17:02;;;;;;;0.30;0.30;;;;;;;22.71;47.50;101262.38;10591880;28;20043;-76
2022/08/07 08:27:27;;;;;;;0.38;0.30;;;;;;;23.82;44.28;101265.91;10602089;28;20409;-76
2022/08/07 08:32:31;;;;;;;0.20;0.20;;;;;;;23.41;44.52;101267.84;10579217;28;20047;-76
2022/08/07 08:37:35;;;;;;;0.30;0.30;;;;;;;23.22;44.14;101268.47;10596891;28;20040;-76
2022/08/07 08:42:48;;;;;;;2.17;0.22;;;;;;;22.76;44.82;101276.16;10580342;28;20518;-76
2022/08/07 08:48:03;;;;;;;2.10;0.30;;;;;;;22.59;46.25;101269.94;10578333;28;20039;-76
2022/08/07 08:53:08;;;;;;;0.35;0.30;;;;;;;23.10;45.97;101277.72;10591008;28;20072;-76
2022/08/07 08:58:16;;;;;;;0.30;0.30;;;;;;;23.54;45.00;101260.25;10581751;28;20048;-77
2022/08/07 09:03:23;;;;;;;0.65;0.40;;;;;;;24.01;45.08;101268.88;10566633;28;20036;-76
2022/08/07 09:08:30;;;;;;;2.10;0.38;;;;;;;24.14;44.00;101266.84;10616129;28;20585;-76
2022/08/07 09:13:38;;;;;;;0.40;0.40;;;;;;;23.95;44.47;101273.09;10616125;28;20054;-75
2022/08/07 09:19:01;;;;;;;2.38;0.35;;;;;;;23.82;44.62;101282.75;10616006;28;20047;-76
2022/08/07 09:24:09;;;;;;;1.65;0.40;;;;;;;23.45;45.61;101275.22;10579769;28;20040;-75
2022/08/07 09:29:24;;;;;;;0.82;0.35;;;;;;;23.48;45.89;101284.91;10585000;27;20394;-74
2022/08/07 09:34:52;;;;;;;0.50;0.50;;;;;;;23.23;46.41;101284.09;10600504;28;20047;-75
2022/08/07 09:40:15;;;;;;;0.57;0.43;;;;;;;22.81;46.67;101278.72;10567819;28;20043;-75
2022/08/07 09:45:26;;;;;;;2.00;0.85;;;;;;;22.49;47.40;101271.19;10585963;28;20062;-75
2022/08/07 09:50:50;;;;;;;1.35;0.45;;;;;;;22.23;48.60;101263.91;10574505;28;20046;-75
2022/08/07 09:56:16;;;;;;;1.08;0.47;;;;;;;22.15;46.79;101266.78;10576034;28;20040;-75
2022/08/07 10:02:01;;;;;;;1.27;0.50;;;;;;;21.99;46.53;101280.56;10580139;28;20052;-74
2022/08/07 10:07:17;;;;;;;0.50;0.35;;;;;;;22.01;46.91;101275.44;10490038;28;20052;-74
2022/08/07 10:13:03;;;;;;;0.40;0.40;;;;;;;22.07;46.52;101288.09;10555539;28;20052;-74
2022/08/07 10:18:24;;;;;;;0.47;0.47;;;;;;;22.03;47.58;101275.09;10596514;28;20044;-75
2022/08/07 10:23:51;;;;;;;0.93;0.60;;;;;;;22.14;46.78;101287.53;10605093;28;20047;-74
2022/08/07 10:29:31;;;;;;;0.80;0.50;;;;;;;22.05;46.04;101284.00;10577736;28;20048;-76
2022/08/07 10:34:45;;;;;;;0.50;0.50;;;;;;;21.68;46.37;101278.19;10578359;28;20043;-75
2022/08/07 10:40:12;;;;;;;3.38;0.52;;;;;;;21.50;47.13;101276.69;10547882;28;20110;-75
2022/08/07 10:45:23;;;;;;;1.95;0.50;;;;;;;21.45;48.77;101277.72;10580086;28;20040;-76
2022/08/07 10:50:34;;;;;;;1.70;0.60;;;;;;;21.16;49.41;101281.28;10563264;28;20048;-76
2022/08/07 10:55:59;;;;;;;1.05;0.63;;;;;;;20.90;49.82;101286.22;10561508;28;20040;-76
2022/08/07 11:01:14;;;;;;;0.95;0.40;;;;;;;20.77;51.41;101291.66;10570097;28;20043;-76
2022/08/07 11:06:41;;;;;;;0.55;0.43;;;;;;;20.70;52.40;101291.38;10604076;28;20416;-76
2022/08/07 11:11:48;;;;;;;0.50;0.50;;;;;;;20.68;52.34;101296.47;10590603;28;20050;-77
2022/08/07 11:16:55;;;;;;;0.80;0.67;;;;;;;20.48;51.37;101302.78;10565420;28;20032;-75
2022/08/07 11:22:11;;;;;;;;;;;;;;;20.21;51.67;101305.91;10581563;28;20058;-75
2022/08/07 11:27:22;;;;;;;0.38;0.30;;;;;;;20.17;51.23;101306.56;10579512;28;19920;-75
2022/08/07 11:32:46;;;;;;;0.77;0.57;;;;;;;20.35;51.19;101312.13;10587118;28;20051;-75
2022/08/07 11:37:49;;;;;;;1.02;0.50;;;;;;;20.33;51.24;101306.88;10589035;28;20421;-75
2022/08/07 11:43:18;;;;;;;1.40;0.65;;;;;;;20.28;51.97;101301.44;10584884;28;20042;-75
2022/08/07 11:48:32;;;;;;;0.40;0.40;;;;;;;20.24;51.55;101303.25;10574849;28;20047;-75
2022/08/07 11:53:59;;;;;;;1.55;0.60;;;;;;;20.36;52.07;101299.81;10598298;28;20051;-75
2022/08/07 11:59:32;;;;;;;0.57;0.50;;;;;;;20.40;50.90;101303.56;10573216;28;20038;-75
2022/08/07 12:04:41;;;;;;;0.80;0.52;;;;;;;20.31;51.14;101311.13;10550161;28;20497;-76
2022/08/07 12:10:07;;;;;;;1.20;0.65;;;;;;;20.17;51.56;101317.72;10581361;28;20031;-75
2022/08/07 12:15:21;;;;;;;1.25;0.50;;;;;;;20.12;52.33;101303.94;10576129;28;20055;-75
2022/08/07 12:20:32;;;;;;;2.92;1.55;;;;;;;20.05;53.07;101323.13;10559524;28;20051;-76
2022/08/07 12:25:52;;;;;;;1.73;0.80;;;;;;;20.03;53.69;101325.41;10540469;28;20036;-75
2022/08/07 12:30:58;;;;;;;1.00;0.82;;;;;;;19.83;55.38;101332.47;10587262;28;20544;-75
2022/08/07 12:36:03;;;;;;;1.23;0.75;;;;;;;19.74;55.53;101333.59;10559432;28;20039;-74
2022/08/07 12:41:06;;;;;;;0.43;0.43;;;;;;;19.86;55.43;101333.78;10570942;28;20054;-75
2022/08/07 12:46:36;;;;;;;0.93;0.70;;;;;;;19.94;54.05;101329.34;10590652;28;20039;-74
2022/08/07 12:51:42;;;;;;;0.68;0.50;;;;;;;19.92;53.54;101334.41;10567408;28;20040;-74
2022/08/07 12:56:48;;;;;;;2.13;0.40;;;;;;;19.82;53.00;101327.22;10550189;28;20052;-78
2022/08/07 13:02:12;;;;;;;0.28;0.28;;;;;;;19.65;52.00;101321.63;10540219;28;20039;-75
2022/08/07 13:07:42;;;;;;;1.45;0.32;;;;;;;19.52;52.03;101334.50;10597390;28;20039;-75
2022/08/07 13:13:10;;;;;;;0.57;0.30;;;;;;;19.40;52.12;101332.34;10572904;28;20039;-75
2022/08/07 13:18:50;;;;;;;0.35;0.30;;;;;;;19.45;52.01;101335.00;10557359;28;20503;-76
2022/08/07 13:24:14;;;;;;;0.32;0.28;;;;;;;19.52;51.24;101332.56;10584424;28;20044;-76
2022/08/07 13:29:31;;;;;;;43.80;4.68;;;;;;;19.58;51.47;101336.84;10605259;28;20535;-76
2022/08/07 13:34:55;;;;;;;11.95;1.30;;;;;;;19.60;51.34;101336.50;10593525;28;20067;-76
2022/08/07 13:40:24;;;;;;;1.75;0.45;;;;;;;19.43;51.16;101345.63;10569111;28;20043;-76
2022/08/07 13:45:28;;;;;;;11.75;1.02;;;;;;;19.34;51.57;101338.41;10591459;28;20054;-74
2022/08/07 13:50:31;;;;;;;1.30;0.60;;;;;;;19.32;52.05;101347.06;10584219;28;20040;-74
2022/08/07 13:55:34;;;;;;;2.45;0.80;;;;;;;19.37;52.31;101338.56;10614490;28;20043;-74
2022/08/07 14:00:37;;;;;;;1.13;0.70;;;;;;;19.34;52.66;101343.97;10587759;28;20387;-74
2022/08/07 14:05:42;;;;;;;3.15;1.00;;;;;;;19.47;53.43;101343.84;10545143;28;20051;-76
2022/08/07 14:10:47;;;;;;;2.28;0.73;;;;;;;19.46;52.52;101345.00;10593265;28;20669;-74
2022/08/07 14:15:55;;;;;;;0.60;0.60;;;;;;;19.51;52.87;101341.22;10589490;28;20040;-77
2022/08/07 14:21:04;;;;;;;0.90;0.50;;;;;;;19.44;52.09;101346.47;10587476;28;20047;-75
2022/08/07 14:26:10;;;;;;;1.75;0.63;;;;;;;19.49;51.55;101338.78;10559756;28;20409;-76
2022/08/07 14:31:13;;;;;;;2.15;0.50;;;;;;;19.70;52.03;101338.19;10593682;28;20035;-76
2022/08/07 14:36:15;;;;;;;3.70;0.50;;;;;;;19.71;52.24;101332.28;10588060;28;20032;-75
2022/08/07 14:41:24;;;;;;;0.93;0.60;;;;;;;19.78;51.52;101337.34;10574428;28;20044;-75
2022/08/07 14:46:28;;;;;;;1.95;0.85;;;;;;;19.83;51.51;101340.00;10565873;28;20032;-75
2022/08/07 14:51:30;;;;;;;2.67;1.00;;;;;;;19.68;50.96;101343.25;10585700;28;20047;-76
2022/08/07 14:56:32;;;;;;;3.13;0.85;;;;;;;19.51;51.05;101336.47;10579474;28;20051;-76
2022/08/07 15:01:35;;;;;;;0.90;0.60;;;;;;;19.39;51.17;101336.28;10579295;28;20052;-76
2022/08/07 15:06:39;;;;;;;0.55;0.55;;;;;;;19.27;51.08;101338.88;10590165;28;20501;-76
2022/08/07 15:11:50;;;;;;;0.70;0.47;;;;;;;19.36;50.71;101341.69;10592964;28;20047;-76
2022/08/07 15:17:14;;;;;;;0.95;0.70;;;;;;;19.31;51.42;101334.31;10570942;28;20051;-76
2022/08/07 15:22:17;;;;;;;1.88;0.45;;;;;;;19.46;50.58;101339.44;10573072;28;20036;-77
2022/08/07 15:27:24;;;;;;;2.58;1.10;;;;;;;19.46;50.71;101347.78;10585027;28;20035;-75
2022/08/07 15:32:27;;;;;;;0.68;0.50;;;;;;;19.34;51.39;101342.00;10573614;28;20405;-75
2022/08/07 15:37:36;;;;;;;0.65;0.50;;;;;;;19.40;52.04;101337.91;10567469;28;20056;-75
2022/08/07 15:42:43;;;;;;;0.98;0.70;;;;;;;19.36;52.85;101345.28;10553518;28;20048;-76
2022/08/07 15:47:52;;;;;;;1.60;0.63;;;;;;;19.35;53.32;101349.22;10584308;28;20494;-75
2022/08/07 15:52:59;;;;;;;1.05;0.88;;;;;;;19.30;53.79;101345.75;10578546;28;20857;-77
2022/08/07 15:58:02;;;;;;;1.02;0.50;;;;;;;19.40;53.94;101343.50;10550398;28;20031;-81
2022/08/07 16:03:12;;;;;;;0.50;0.43;;;;;;;19.50;53.72;101340.41;10556429;28;20389;-77
2022/08/07 16:08:25;;;;;;;2.03;0.68;;;;;;;19.50;53.81;101342.38;10579757;28;20048;-76
2022/08/07 16:13:56;;;;;;;0.55;0.47;;;;;;;19.48;53.31;101342.69;10577281;28;20039;-75
2022/08/07 16:19:25;;;;;;;0.82;0.40;;;;;;;19.60;53.33;101344.88;10592099;28;20425;-75
2022/08/07 16:24:32;;;;;;;2.08;0.40;;;;;;;19.58;52.19;101347.16;10561632;28;20036;-75
2022/08/07 16:29:47;;;;;;;0.57;0.40;;;;;;;19.37;51.21;101348.88;10610051;28;20040;-74
2022/08/07 16:35:10;;;;;;;0.52;0.38;;;;;;;19.47;50.62;101348.59;10573105;28;20043;-75
2022/08/07 16:40:47;;;;;;;2.20;0.40;;;;;;;19.43;49.74;101351.19;10558242;28;20048;-75
2022/08/07 16:46:26;;;;;;;0.37;0.37;;;;;;;19.52;49.33;101352.03;10588983;28;20046;-75
2022/08/07 16:51:28;;;;;;;0.57;0.40;;;;;;;19.35;48.99;101368.69;10606107;28;20058;-74
2022/08/07 16:56:30;;;;;;;1.08;0.50;;;;;;;19.37;48.90;101366.41;10603109;28;20187;-75
2022/08/07 17:01:41;;;;;;;1.27;0.90;;;;;;;19.26;49.25;101365.91;10583397;28;20520;-75
2022/08/07 17:06:55;;;;;;;1.00;0.68;;;;;;;19.04;50.23;101368.72;10598606;28;20044;-76
2022/08/07 17:11:59;;;;;;;2.60;0.68;;;;;;;19.01;50.77;101369.38;10579338;28;20048;-76
2022/08/07 17:17:05;;;;;;;2.13;1.38;;;;;;;18.88;51.59;101373.88;10563887;28;20047;-75
2022/08/07 17:22:14;;;;;;;2.70;1.10;;;;;;;18.78;52.53;101381.69;10550086;28;20051;-73
2022/08/07 17:27:38;;;;;;;1.98;1.02;;;;;;;18.63;53.45;101377.34;10594030;28;20048;-73
2022/08/07 17:32:58;;;;;;;1.48;0.90;;;;;;;18.59;54.06;101385.47;10576430;28;20245;-74
2022/08/07 17:38:10;;;;;;;1.30;0.70;;;;;;;18.54;54.76;101390.31;10598848;28;20039;-75
2022/08/07 17:43:20;;;;;;;1.33;0.70;;;;;;;18.41;55.65;101391.25;10571007;28;20036;-75
2022/08/07 17:48:27;;;;;;;1.17;0.82;;;;;;;18.33;56.27;101396.41;10592895;28;20413;-74
2022/08/07 17:53:55;;;;;;;1.50;0.88;;;;;;;18.32;56.97;101405.03;10545509;28;20437;-75
2022/08/07 17:59:12;;;;;;;1.65;1.10;;;;;;;18.33;56.88;101395.56;10538606;28;20655;-75
2022/08/07 18:04:36;;;;;;;1.55;0.70;;;;;;;18.31;57.71;101408.97;10557263;28;20114;-75
2022/08/07 18:09:49;;;;;;;0.90;0.75;;;;;;;18.30;58.23;101410.09;10597923;27;20050;-75
2022/08/07 18:15:10;;;;;;;0.75;0.40;;;;;;;18.31;59.13;101395.06;10579254;28;20044;-75
2022/08/07 18:20:22;;;;;;;2.17;0.60;;;;;;;18.42;59.18;101399.25;10595034;28;20035;-76
2022/08/07 18:25:30;;;;;;;1.98;1.02;;;;;;;18.50;59.34;101398.47;10568886;28;20175;-75
2022/08/07 18:30:39;;;;;;;1.58;0.77;;;;;;;18.46;59.76;101399.44;10585666;28;20052;-75
2022/08/07 18:36:26;;;;;;;0.70;0.65;;;;;;;18.49;59.90;101399.63;10579004;28;20042;-75
2022/08/07 18:41:44;;;;;;;1.95;0.82;;;;;;;18.43;60.55;101408.41;10548550;28;20036;-75
2022/08/07 18:47:08;;;;;;;1.25;0.80;;;;;;;18.33;61.33;101407.50;10576716;28;20051;-75
2022/08/07 18:52:20;;;;;;;1.75;1.00;;;;;;;18.49;60.72;101413.53;10562906;28;20073;-75
2022/08/07 18:57:47;;;;;;;2.03;1.27;;;;;;;18.72;60.04;101419.91;10560439;28;20047;-75
2022/08/07 19:03:08;;;;;;;2.25;0.90;;;;;;;18.71;60.53;101420.22;10565031;28;20058;-78
2022/08/07 19:08:18;;;;;;;1.40;1.05;;;;;;;18.57;60.69;101423.03;10586986;28;20051;-77
2022/08/07 19:13:55;;;;;;;2.22;1.10;;;;;;;18.36;60.77;101422.72;10607634;28;20043;-78
2022/08/07 19:19:49;;;;;;;2.08;0.98;;;;;;;18.22;61.23;101431.13;10550520;28;20048;-79
2022/08/07 19:24:52;;;;;;;2.97;1.77;;;;;;;18.34;61.03;101431.38;10578834;28;20040;-78
2022/08/07 19:29:57;;;;;;;1.52;0.77;;;;;;;18.18;60.96;101434.81;10590574;28;20047;-79
2022/08/07 19:35:01;;;;;;;2.28;1.15;;;;;;;18.16;61.10;101437.91;10581687;28;20386;-78
2022/08/07 19:40:05;;;;;;;0.85;0.80;;;;;;;18.29;61.15;101439.84;10566184;28;20035;-81
2022/08/07 19:45:15;;;;;;;1.98;1.30;;;;;;;18.39;60.45;101435.97;10551932;28;20052;-79
2022/08/07 19:50:21;;;;;;;2.38;0.93;;;;;;;18.62;59.81;101445.19;10563178;28;20040;-83
2022/08/07 19:55:27;;;;;;;2.28;0.80;;;;;;;18.71;59.47;101446.06;10603918;28;20035;-77
2022/08/07 20:00:33;;;;;;;1.10;0.85;;;;;;;18.87;58.91;101457.63;10580106;28;20043;-79
2022/08/07 20:05:37;;;;;;;2.80;0.88;;;;;;;18.99;58.35;101460.66;10575528;28;20035;-77
2022/08/07 20:10:42;;;;;;;1.52;1.08;;;;;;;19.03;57.81;101455.28;10560106;28;20371;-78
2022/08/07 20:15:45;;;;;;;3.00;0.70;;;;;;;19.05;57.91;101453.00;10570845;28;20054;-78
2022/08/07 20:20:47;;;;;;;1.02;0.80;;;;;;;19.05;57.91;101466.91;10578490;28;20042;-79
2022/08/07 20:25:51;;;;;;;1.50;0.70;;;;;;;19.01;57.32;101468.69;10618703;28;20039;-79
2022/08/07 20:30:53;;;;;;;0.82;0.60;;;;;;;18.94;57.76;101474.72;10601403;28;20046;-78
2022/08/07 20:35:57;;;;;;;1.02;0.70;;;;;;;18.97;57.94;101477.69;10599262;28;20043;-79
2022/08/07 20:41:02;;;;;;;0.75;0.60;;;;;;;19.06;57.59;101488.84;10601724;28;20039;-78
2022/08/07 20:46:10;;;;;;;1.40;0.77;;;;;;;18.97;57.78;101491.59;10618321;28;20031;-78
2022/08/07 20:51:12;;;;;;;0.70;0.52;;;;;;;19.06;57.49;101488.03;10617358;28;20063;-76
2022/08/07 20:56:15;;;;;;;0.52;0.50;;;;;;;19.03;57.73;101495.03;10585825;28;20048;-76
2022/08/07 21:01:23;;;;;;;0.65;0.40;;;;;;;19.12;57.70;101486.78;10609854;28;20042;-78
2022/08/07 21:06:27;;;;;;;1.63;0.52;;;;;;;19.14;57.79;101492.84;10561940;28;20036;-78
2022/08/07 21:11:31;;;;;;;0.90;0.57;;;;;;;19.12;58.15;101506.25;10586079;28;20546;-76
2022/08/07 21:16:58;;;;;;;1.80;0.70;;;;;;;19.17;57.88;101506.09;10562258;28;20040;-78
2022/08/07 21:22:04;;;;;;;1.17;1.07;;;;;;;19.00;59.10;101500.44;10602752;28;20036;-77
2022/08/07 21:27:51;;;;;;;1.93;0.60;;;;;;;18.78;59.64;101504.88;10575639;28;20046;-78
2022/08/07 21:33:21;;;;;;;0.80;0.57;;;;;;;18.77;59.91;101505.19;10598055;28;20541;-78
2022/08/07 21:38:48;;;;;;;2.42;1.00;;;;;;;18.74;60.25;101509.38;10588048;28;20052;-77
2022/08/07 21:44:08;;;;;;;1.83;0.57;;;;;;;18.60;60.75;101503.88;10576448;28;20043;-79
2022/08/07 21:49:45;;;;;;;0.75;0.63;;;;;;;18.80;60.85;101510.94;10587358;28;20051;-78
2022/08/07 21:55:05;;;;;;;2.45;0.60;;;;;;;18.85;60.69;101513.56;10586863;28;20055;-78
2022/08/07 22:00:14;;;;;;;0.90;0.52;;;;;;;18.54;61.73;101509.84;10594391;28;20032;-78
2022/08/07 22:05:20;;;;;;;1.90;0.55;;;;;;;18.66;61.59;101510.97;10608755;28;20074;-76
2022/08/07 22:10:27;;;;;;;0.43;0.43;;;;;;;18.77;61.74;101511.56;10592218;28;20424;-76
2022/08/07 22:15:57;;;;;;;0.73;0.73;;;;;;;18.67;62.24;101509.00;10606719;28;20071;-77
2022/08/07 22:21:05;;;;;;;2.05;0.88;;;;;;;18.63;62.19;101510.78;10603871;28;20066;-78
2022/08/07 22:26:21;;;;;;;1.15;0.80;;;;;;;18.80;62.08;101510.09;10587823;28;20520;-77
2022/08/07 22:31:40;;;;;;;0.40;0.40;;;;;;;18.70;62.38;101513.13;10595149;28;20044;-78
2022/08/07 22:36:48;;;;;;;0.55;0.50;;;;;;;18.73;62.25;101513.31;10577840;28;20035;-76
2022/08/07 22:42:05;;;;;;;1.10;0.50;;;;;;;18.82;62.15;101519.78;10588254;28;20032;-77
2022/08/07 22:47:13;;;;;;;0.87;0.63;;;;;;;18.75;62.26;101515.81;10574688;28;20031;-77
2022/08/07 22:52:47;;;;;;;2.90;0.93;;;;;;;18.68;62.68;101522.59;10592344;28;20039;-76
2022/08/07 22:58:12;;;;;;;0.68;0.68;;;;;;;18.75;62.30;101516.63;10548359;27;20047;-76
2022/08/07 23:03:24;;;;;;;1.20;0.65;;;;;;;18.84;62.69;101520.28;10581521;28;20151;-77
2022/08/07 23:08:41;;;;;;;2.53;0.60;;;;;;;18.85;62.38;101526.66;10599449;28;20050;-77
2022/08/07 23:14:09;;;;;;;0.85;0.60;;;;;;;18.86;62.26;101536.66;10594231;28;20058;-77
2022/08/07 23:25:17;;;;;;;0.50;0.50;;;;;;;18.73;62.56;101534.72;10577234;28;20043;-77
2022/08/07 23:30:32;;;;;;;0.90;0.60;;;;;;;18.57;62.80;101523.09;10560613;28;20040;-74
2022/08/07 23:35:46;;;;;;;0.70;0.60;;;;;;;18.61;63.14;101536.09;10561550;28;20386;-75
2022/08/07 23:40:57;;;;;;;1.58;0.85;;;;;;;18.58;63.12;101533.94;10590009;28;20410;-75
2022/08/07 23:46:21;;;;;;;2.35;0.90;;;;;;;18.52;62.94;101535.19;10563635;28;20032;-76
2022/08/07 23:51:31;;;;;;;1.42;0.90;;;;;;;18.50;63.58;101540.22;10574675;28;20035;-77
2022/08/07 23:56:33;;;;;;;0.90;0.80;;;;;;;18.55;63.30;101537.31;10582828;28;20054;-77
